Time;durP1;ratioP1;P1;durP2;ratioP2;P2;SDS_P1;SDS_P2;PMS_P1;PMS_P2;Temp;Humidity;BMP_temperature;BMP_pressure;BME280_temperature;BME280_humidity;BME280_pressure;Samples;Min_cycle;Max_cycle;Signal;HPM_P1;HPM_P2
2023/10/17 00:02:11;;;;;;;7.43;2.20;;;;;;;7.50;100.00;101292.31;5048118;28;20136;-67
2023/10/17 00:04:41;;;;;;;5.95;2.15;;;;;;;7.49;100.00;101301.00;5050356;28;20078;-67
2023/10/17 00:07:09;;;;;;;6.72;2.05;;;;;;;7.47;100.00;101290.63;5049294;28;20115;-67
2023/10/17 00:09:39;;;;;;;5.10;2.05;;;;;;;7.42;100.00;101297.66;5050365;28;20041;-67
2023/10/17 00:14:45;;;;;;;7.07;2.53;;;;;;;7.35;100.00;101299.50;5050087;28;20084;-67
2023/10/17 00:17:16;;;;;;;6.53;2.00;;;;;;;7.48;100.00;101305.38;5049616;28;20056;-67
2023/10/17 00:19:45;;;;;;;6.28;1.85;;;;;;;7.41;100.00;101296.78;5049733;28;20132;-67
2023/10/17 00:22:18;;;;;;;4.68;1.58;;;;;;;7.37;100.00;101295.13;5048804;28;20589;-67
2023/10/17 00:24:54;;;;;;;5.97;1.85;;;;;;;7.24;100.00;101280.53;5037999;28;20449;-67
2023/10/17 00:27:22;;;;;;;5.45;2.10;;;;;;;7.26;100.00;101291.81;5049306;28;20048;-67
2023/10/17 00:29:49;;;;;;;5.75;1.80;;;;;;;7.20;100.00;101287.53;5049107;28;20045;-67
2023/10/17 00:32:16;;;;;;;6.28;2.30;;;;;;;7.21;100.00;101289.28;5046944;28;20063;-67
2023/10/17 00:34:46;;;;;;;5.05;1.83;;;;;;;7.17;100.00;101291.94;5047779;28;20048;-67
2023/10/17 00:37:19;;;;;;;5.22;1.98;;;;;;;7.11;100.00;101298.09;5053483;28;20506;-67
2023/10/17 00:39:47;;;;;;;5.60;1.98;;;;;;;7.10;100.00;101287.69;5048031;28;20124;-67
2023/10/17 00:42:27;;;;;;;7.40;1.70;;;;;;;7.12;100.00;101298.94;5055225;28;20045;-67
2023/10/17 00:44:55;;;;;;;4.63;1.70;;;;;;;7.04;100.00;101286.06;5045726;28;20057;-67
2023/10/17 00:47:22;;;;;;;4.53;1.70;;;;;;;6.98;100.00;101291.34;5063243;28;20045;-67
2023/10/17 00:49:52;;;;;;;3.35;1.55;;;;;;;6.93;100.00;101291.41;5068509;28;20128;-67
2023/10/17 00:52:24;;;;;;;4.15;1.55;;;;;;;6.95;100.00;101294.00;5059216;28;20057;-67
2023/10/17 00:54:55;;;;;;;5.10;1.95;;;;;;;6.88;100.00;101306.22;5057833;28;20560;-67
2023/10/17 00:57:26;;;;;;;4.97;1.60;;;;;;;6.95;100.00;101300.06;5045578;28;20044;-67
2023/10/17 01:00:08;;;;;;;4.20;1.50;;;;;;;6.88;100.00;101298.41;5073704;28;20448;-66
2023/10/17 01:02:44;;;;;;;9.10;2.20;;;;;;;6.77;100.00;101290.75;5045246;28;20077;-67
2023/10/17 01:05:12;;;;;;;5.70;1.88;;;;;;;6.72;100.00;101287.34;5067328;28;20053;-67
2023/10/17 01:07:40;;;;;;;4.95;1.70;;;;;;;6.80;100.00;101295.94;5053045;28;20127;-67
2023/10/17 01:10:10;;;;;;;5.70;1.88;;;;;;;6.89;100.00;101297.56;5053690;28;20045;-67
2023/10/17 01:15:28;;;;;;;5.45;1.77;;;;;;;6.90;100.00;101295.78;5069152;28;20387;-67
2023/10/17 01:18:01;;;;;;;4.80;1.73;;;;;;;6.82;100.00;101299.38;5072907;28;20044;-67
2023/10/17 01:20:29;;;;;;;4.90;2.10;;;;;;;6.76;100.00;101289.00;5059494;28;20049;-67
2023/10/17 01:22:56;;;;;;;4.70;1.70;;;;;;;6.82;100.00;101296.75;5057671;28;20052;-67
2023/10/17 01:25:25;;;;;;;2.55;1.30;;;;;;;6.78;100.00;101295.09;5060464;28;20320;-66
2023/10/17 01:27:53;;;;;;;4.82;1.70;;;;;;;6.80;100.00;101293.31;5072403;28;20087;-67
2023/10/17 01:30:20;;;;;;;4.13;1.58;;;;;;;6.75;100.00;101287.31;5072114;28;20048;-67
2023/10/17 01:32:51;;;;;;;3.60;1.35;;;;;;;6.78;100.00;101287.28;5054460;28;20048;-67
2023/10/17 01:35:21;;;;;;;2.45;1.35;;;;;;;6.69;100.00;101279.56;5055238;28;20051;-67
2023/10/17 01:37:48;;;;;;;3.15;1.20;;;;;;;6.76;100.00;101294.22;5066808;28;20063;-67
2023/10/17 01:40:26;;;;;;;3.88;1.40;;;;;;;6.70;100.00;101281.31;5053081;28;20079;-67
2023/10/17 01:42:56;;;;;;;2.65;1.20;;;;;;;6.85;100.00;101290.63;5060290;28;20052;-67
2023/10/17 01:45:25;;;;;;;3.78;1.50;;;;;;;6.74;100.00;101287.34;5072752;28;20051;-67
2023/10/17 01:47:53;;;;;;;5.85;1.55;;;;;;;6.85;100.00;101295.84;5071827;28;20060;-67
2023/10/17 01:50:24;;;;;;;4.60;1.40;;;;;;;6.70;100.00;101283.06;5067399;28;20095;-67
2023/10/17 01:52:54;;;;;;;5.78;1.50;;;;;;;6.81;100.00;101300.22;5057683;28;20060;-67
2023/10/17 01:55:26;;;;;;;4.43;1.50;;;;;;;6.80;100.00;101290.72;5072030;28;20078;-67
2023/10/17 01:57:59;;;;;;;3.28;1.30;;;;;;;6.78;100.00;101281.19;5071915;28;20482;-67
2023/10/17 02:00:37;;;;;;;3.17;1.17;;;;;;;6.79;100.00;101299.41;5072188;28;20040;-67
2023/10/17 02:03:08;;;;;;;2.55;1.20;;;;;;;6.75;100.00;101289.06;5052723;28;20410;-67
2023/10/17 02:05:35;;;;;;;3.05;1.30;;;;;;;6.65;100.00;101283.09;5052121;28;20052;-67
2023/10/17 02:08:02;;;;;;;5.00;1.30;;;;;;;6.58;100.00;101274.50;5062204;28;20052;-67
2023/10/17 02:10:29;;;;;;;2.10;1.20;;;;;;;6.62;100.00;101284.00;5068342;28;20387;-67
2023/10/17 02:12:57;;;;;;;3.58;1.27;;;;;;;6.71;100.00;101287.34;5052158;28;20063;-67
2023/10/17 02:15:23;;;;;;;2.78;1.30;;;;;;;6.66;100.00;101290.03;5066970;28;20370;-67
2023/10/17 02:17:52;;;;;;;2.13;1.10;;;;;;;6.53;100.00;101278.91;5059272;28;20076;-67
2023/10/17 02:20:30;;;;;;;2.55;1.10;;;;;;;6.67;100.00;101296.09;5070088;28;20040;-67
2023/10/17 02:23:02;;;;;;;1.90;1.00;;;;;;;6.56;100.00;101296.22;5038348;28;20135;-66
2023/10/17 02:25:33;;;;;;;2.40;1.10;;;;;;;6.40;100.00;101288.59;5039434;28;20056;-66
2023/10/17 02:28:01;;;;;;;2.28;1.02;;;;;;;6.49;100.00;101289.38;5041608;28;20060;-67
2023/10/17 02:30:27;;;;;;;2.42;1.27;;;;;;;6.54;100.00;101288.44;5055003;28;20048;-67
2023/10/17 02:32:54;;;;;;;3.22;1.27;;;;;;;6.36;100.00;101286.91;5053166;28;20118;-67
2023/10/17 02:35:39;;;;;;;2.30;1.13;;;;;;;6.39;100.00;101279.09;5065934;28;20063;-66
2023/10/17 02:38:08;;;;;;;5.55;1.40;;;;;;;6.35;100.00;101279.13;5052752;28;20052;-66
2023/10/17 02:40:40;;;;;;;3.53;1.38;;;;;;;6.38;100.00;101285.16;5060222;28;20045;-66
2023/10/17 02:43:12;;;;;;;4.25;1.45;;;;;;;6.37;100.00;101266.97;5052302;28;20087;-66
2023/10/17 02:45:41;;;;;;;2.27;1.20;;;;;;;6.40;100.00;101272.13;5051208;28;20052;-67
2023/10/17 02:48:23;;;;;;;3.05;1.23;;;;;;;6.37;100.00;101282.56;5054181;28;20053;-66
2023/10/17 02:51:01;;;;;;;3.92;1.40;;;;;;;6.34;100.00;101277.41;5071781;28;20045;-66
2023/10/17 02:53:32;;;;;;;3.55;1.50;;;;;;;6.32;100.00;101287.84;5063504;28;20052;-66
2023/10/17 02:56:07;;;;;;;8.25;1.60;;;;;;;6.24;100.00;101282.69;5060486;28;20048;-67
2023/10/17 02:58:34;;;;;;;3.28;1.25;;;;;;;6.28;100.00;101288.72;5071429;28;20481;-66
2023/10/17 03:01:01;;;;;;;3.20;1.30;;;;;;;6.18;100.00;101277.59;5069959;28;20055;-66
2023/10/17 03:03:29;;;;;;;2.55;1.10;;;;;;;6.30;100.00;101284.38;5058098;28;20080;-66
2023/10/17 03:05:57;;;;;;;4.05;1.70;;;;;;;6.29;100.00;101280.06;5057570;28;20529;-67
2023/10/17 03:08:24;;;;;;;3.17;1.27;;;;;;;6.14;100.00;101275.88;5057088;28;20049;-67
2023/10/17 03:10:55;;;;;;;3.50;1.40;;;;;;;6.23;100.00;101290.50;5055796;28;20041;-67
2023/10/17 03:13:33;;;;;;;4.93;1.98;;;;;;;6.16;100.00;101283.66;5055401;28;20055;-66
2023/10/17 03:16:14;;;;;;;3.70;1.40;;;;;;;6.15;100.00;101289.75;5050347;28;20519;-66
2023/10/17 03:18:40;;;;;;;6.28;1.40;;;;;;;6.12;100.00;101282.84;5050044;28;20053;-66
2023/10/17 03:21:08;;;;;;;4.82;1.38;;;;;;;6.17;100.00;101285.41;5034516;28;20063;-66
2023/10/17 03:23:35;;;;;;;5.15;1.50;;;;;;;6.07;100.00;101288.09;5040992;28;20099;-66
2023/10/17 03:26:01;;;;;;;3.20;1.30;;;;;;;6.04;100.00;101295.91;5052230;28;20469;-67
2023/10/17 03:28:29;;;;;;;2.72;1.17;;;;;;;5.94;100.00;101289.06;5062900;28;20080;-67
2023/10/17 03:30:56;;;;;;;3.55;1.50;;;;;;;6.05;100.00;101295.03;5049574;28;20041;-67
2023/10/17 03:33:29;;;;;;;3.70;1.30;;;;;;;5.97;100.00;101293.41;5053026;28;20406;-67
2023/10/17 03:38:33;;;;;;;4.22;1.40;;;;;;;5.96;100.00;101287.31;5069722;28;20075;-67
2023/10/17 03:41:15;;;;;;;3.70;1.30;;;;;;;5.94;100.00;101281.25;5055383;28;20187;-67
2023/10/17 03:43:52;;;;;;;3.58;1.40;;;;;;;5.90;100.00;101288.22;5049815;28;20501;-67
2023/10/17 03:46:25;;;;;;;4.68;1.27;;;;;;;5.98;100.00;101289.91;5044336;28;20517;-67
2023/10/17 03:49:00;;;;;;;3.58;1.30;;;;;;;5.88;100.00;101268.34;5048832;28;20049;-67
2023/10/17 03:51:27;;;;;;;3.08;1.20;;;;;;;5.97;100.00;101285.59;5045890;28;20385;-67
2023/10/17 03:54:06;;;;;;;2.35;1.10;;;;;;;6.02;100.00;101297.69;5062506;28;20099;-67
2023/10/17 03:56:45;;;;;;;5.25;1.38;;;;;;;5.94;100.00;101280.41;5064089;28;20045;-67
2023/10/17 04:01:41;;;;;;;6.55;1.50;;;;;;;5.95;100.00;101290.78;5054507;28;20059;-67
2023/10/17 04:04:08;;;;;;;3.92;1.20;;;;;;;5.98;100.00;101282.13;5051354;28;20147;-67
2023/10/17 04:06:55;;;;;;;4.40;1.33;;;;;;;6.04;100.00;101290.72;5065272;28;20087;-67
2023/10/17 04:09:26;;;;;;;2.13;1.10;;;;;;;6.00;100.00;101286.44;5062613;28;20045;-67
2023/10/17 04:11:56;;;;;;;2.50;1.20;;;;;;;6.00;100.00;101290.75;5036286;28;20046;-66
2023/10/17 04:14:33;;;;;;;2.80;1.15;;;;;;;5.94;100.00;101290.78;5036965;28;20045;-66
2023/10/17 04:17:05;;;;;;;4.05;1.15;;;;;;;5.92;100.00;101283.00;5064651;28;20056;-66
2023/10/17 04:19:39;;;;;;;3.78;1.15;;;;;;;6.01;100.00;101293.34;5063286;28;20107;-66
2023/10/17 04:22:14;;;;;;;2.50;1.10;;;;;;;5.95;100.00;101300.31;5040709;28;20049;-66
2023/10/17 04:24:48;;;;;;;3.67;1.17;;;;;;;5.85;100.00;101300.38;5050490;28;20141;-66
2023/10/17 04:29:49;;;;;;;4.95;1.65;;;;;;;5.84;100.00;101295.19;5062947;28;20052;-66
2023/10/17 04:32:19;;;;;;;3.10;1.30;;;;;;;5.84;100.00;101292.59;5043119;28;20094;-66
2023/10/17 04:34:47;;;;;;;4.30;1.30;;;;;;;5.87;100.00;101301.22;5052415;28;20430;-66
2023/10/17 04:37:17;;;;;;;1.92;1.15;;;;;;;5.89;100.00;101299.47;5062864;28;20494;-66
2023/10/17 04:39:56;;;;;;;2.83;1.17;;;;;;;5.82;100.00;101286.56;5054412;28;20055;-66
2023/10/17 04:42:47;;;;;;;1.75;1.10;;;;;;;5.78;100.00;101295.28;5047349;28;20070;-66
2023/10/17 04:45:19;;;;;;;2.72;1.10;;;;;;;5.79;100.00;101289.19;5064607;28;20482;-66
2023/10/17 04:47:46;;;;;;;3.33;1.13;;;;;;;5.66;100.00;101268.50;5049409;28;20044;-66
2023/10/17 04:50:13;;;;;;;2.28;1.00;;;;;;;5.70;100.00;101277.13;5065997;28;20071;-66
2023/10/17 04:52:44;;;;;;;2.03;1.10;;;;;;;5.68;100.00;101284.09;5054648;28;20053;-66
2023/10/17 04:55:30;;;;;;;2.78;1.10;;;;;;;5.68;100.00;101278.88;5049490;28;20052;-66
2023/10/17 04:58:23;;;;;;;3.13;1.30;;;;;;;5.58;100.00;101275.53;5049617;28;20166;-66
2023/10/17 05:03:43;;;;;;;3.63;1.35;;;;;;;5.54;100.00;101265.16;5053630;28;20049;-66
2023/10/17 06:17:40;;;;;;;1.95;1.00;;;;;;;5.08;100.00;101279.31;5043154;28;20052;-66
2023/10/17 06:20:16;;;;;;;2.28;1.05;;;;;;;5.08;100.00;101280.22;5048633;28;20509;-66
2023/10/17 06:33:29;;;;;;;3.40;1.27;;;;;;;4.90;100.00;101294.13;5016752;28;20081;-66
2023/10/17 06:35:55;;;;;;;5.57;2.42;;;;;;;4.82;100.00;101295.91;5050940;28;20064;-66
2023/10/17 06:38:29;;;;;;;1.73;1.20;;;;;;;4.86;100.00;101304.56;5047454;28;20132;-66
2023/10/17 06:41:47;;;;;;;;;;;;;;;4.92;100.00;101315.78;5050745;28;20470;-66
2023/10/17 06:43:58;;;;;;;5.53;1.30;;;;;;;4.79;100.00;101308.03;5044045;28;19947;-66
2023/10/17 06:46:40;;;;;;;3.72;1.30;;;;;;;4.86;100.00;101312.34;5049695;28;20049;-66
2023/10/17 06:49:28;;;;;;;3.80;1.38;;;;;;;4.75;100.00;101302.00;5040485;28;20080;-66
2023/10/17 06:52:18;;;;;;;3.13;1.15;;;;;;;4.66;100.00;101296.88;5038756;28;20136;-66
2023/10/17 06:54:58;;;;;;;4.50;1.45;;;;;;;4.74;100.00;101308.91;5048500;28;20044;-66
2023/10/17 06:57:33;;;;;;;3.28;1.15;;;;;;;4.82;100.00;101321.88;5045697;28;20053;-66
2023/10/17 07:00:24;;;;;;;2.60;1.48;;;;;;;4.78;100.00;101304.59;5036694;28;20045;-67
2023/10/17 07:02:56;;;;;;;3.10;1.20;;;;;;;4.86;100.00;101301.94;5034834;28;20087;-66
2023/10/17 07:05:26;;;;;;;2.90;1.10;;;;;;;4.88;100.00;101306.25;5040054;28;20051;-66
2023/10/17 07:07:53;;;;;;;3.05;1.20;;;;;;;4.91;100.00;101303.66;5045642;28;20050;-66
2023/10/17 07:13:28;;;;;;;2.15;1.20;;;;;;;4.92;100.00;101313.19;5042083;28;20094;-66
2023/10/17 07:15:55;;;;;;;5.07;1.35;;;;;;;4.90;100.00;101306.25;5038025;28;20052;-66
2023/10/17 07:18:44;;;;;;;4.55;1.55;;;;;;;4.98;100.00;101325.25;5038544;28;20053;-66
2023/10/17 07:23:45;;;;;;;2.55;1.17;;;;;;;4.97;100.00;101314.88;5040898;28;20053;-66
2023/10/17 07:28:55;;;;;;;3.50;1.40;;;;;;;5.13;100.00;101325.19;5035923;28;20544;-66
2023/10/17 07:31:23;;;;;;;3.60;1.40;;;;;;;5.32;100.00;101319.84;5044290;28;20051;-66
2023/10/17 07:34:07;;;;;;;3.45;1.38;;;;;;;6.18;100.00;101332.19;5048147;28;20051;-66
2023/10/17 07:36:34;;;;;;;2.10;1.10;;;;;;;6.76;100.00;101325.44;5048797;28;20128;-66
2023/10/17 07:41:53;;;;;;;2.85;1.30;;;;;;;6.79;100.00;101314.16;5042560;28;20041;-66
2023/10/17 07:44:25;;;;;;;1.95;1.10;;;;;;;7.12;100.00;101325.00;5051788;28;20044;-66
2023/10/17 07:49:42;;;;;;;2.90;1.20;;;;;;;7.77;100.00;101344.00;5038875;28;20488;-67
2023/10/17 07:52:12;;;;;;;4.13;1.30;;;;;;;8.08;100.00;101348.69;5047589;28;20048;-67
2023/10/17 07:54:55;;;;;;;2.85;1.23;;;;;;;8.02;100.00;101354.03;5050038;28;20056;-67
2023/10/17 07:57:26;;;;;;;2.13;1.17;;;;;;;8.25;100.00;101351.03;5045474;28;20045;-67
2023/10/17 07:59:57;;;;;;;5.30;1.30;;;;;;;8.63;100.00;101344.25;5044898;28;20494;-67
2023/10/17 08:02:30;;;;;;;1.90;1.10;;;;;;;8.85;100.00;101349.03;5040478;28;20052;-67
2023/10/17 08:05:16;;;;;;;2.55;1.02;;;;;;;9.04;100.00;101341.66;5047980;28;20045;-66
2023/10/17 08:07:49;;;;;;;2.53;1.23;;;;;;;9.35;100.00;101341.84;5048151;28;20071;-67
2023/10/17 08:10:35;;;;;;;3.85;1.35;;;;;;;9.54;100.00;101350.09;5048747;28;20079;-67
2023/10/17 08:13:02;;;;;;;4.20;1.80;;;;;;;9.61;100.00;101346.44;5040035;28;20414;-69
2023/10/17 08:18:14;;;;;;;9.00;3.05;;;;;;;9.39;100.00;101353.94;5034597;28;20045;-69
2023/10/17 08:20:54;;;;;;;7.18;2.22;;;;;;;9.63;100.00;101357.75;5044146;28;20045;-69
2023/10/17 08:23:23;;;;;;;7.50;1.77;;;;;;;9.81;100.00;101350.34;5036723;28;20077;-69
2023/10/17 08:25:52;;;;;;;4.38;1.40;;;;;;;9.81;100.00;101337.25;5037218;28;20061;-68
2023/10/17 08:31:17;;;;;;;7.25;1.95;;;;;;;9.78;100.00;101343.44;5036292;28;20462;-68
2023/10/17 08:33:57;;;;;;;4.72;1.35;;;;;;;9.84;100.00;101339.81;5041154;28;20049;-69
2023/10/17 08:36:28;;;;;;;4.90;1.30;;;;;;;9.69;100.00;101341.91;5040347;28;20041;-69
2023/10/17 08:38:55;;;;;;;4.72;1.48;;;;;;;9.79;100.00;101346.91;5035031;28;20454;-68
2023/10/17 08:41:24;;;;;;;3.88;1.30;;;;;;;9.80;100.00;101335.56;5034059;28;20399;-69
2023/10/17 08:43:54;;;;;;;3.72;1.30;;;;;;;9.56;100.00;101363.16;5033671;28;20064;-68
2023/10/17 08:46:21;;;;;;;3.55;1.40;;;;;;;9.64;100.00;101345.53;5049273;28;20533;-68
2023/10/17 08:48:47;;;;;;;3.13;1.15;;;;;;;9.62;100.00;101360.41;5031950;28;20413;-68
2023/10/17 08:51:14;;;;;;;3.83;1.38;;;;;;;9.35;100.00;101356.66;5039300;28;20386;-68
2023/10/17 08:53:55;;;;;;;3.47;1.30;;;;;;;9.13;100.00;101355.38;5047836;28;20072;-68
2023/10/17 08:56:22;;;;;;;3.78;1.20;;;;;;;9.04;100.00;101345.13;5047874;28;20048;-68
2023/10/17 08:59:03;;;;;;;3.22;1.23;;;;;;;8.96;100.00;101351.41;5048223;28;20451;-69
2023/10/17 09:01:30;;;;;;;3.58;1.13;;;;;;;9.08;100.00;101356.38;5047163;28;20057;-69
2023/10/17 09:03:57;;;;;;;3.75;1.20;;;;;;;9.16;100.00;101359.69;5045379;28;20114;-68
2023/10/17 09:08:55;;;;;;;3.60;1.48;;;;;;;9.36;100.00;101363.63;5046368;28;20059;-68
2023/10/17 09:11:41;;;;;;;3.85;1.30;;;;;;;9.51;100.00;101378.97;5047557;28;20083;-68
2023/10/17 09:14:24;;;;;;;2.38;1.20;;;;;;;9.51;100.00;101352.81;5045442;28;20051;-68
2023/10/17 09:17:00;;;;;;;2.45;1.20;;;;;;;9.63;100.00;101372.56;5041475;28;20053;-68
2023/10/17 09:19:26;;;;;;;3.30;1.10;;;;;;;9.61;100.00;101382.22;5047968;28;20499;-68
2023/10/17 09:21:53;;;;;;;4.53;1.33;;;;;;;9.54;100.00;101376.25;5040404;28;20052;-68
2023/10/17 09:24:32;;;;;;;5.22;1.80;;;;;;;9.62;100.00;101370.88;5051910;28;20487;-69
2023/10/17 09:26:59;;;;;;;4.75;1.60;;;;;;;9.59;100.00;101370.94;5039918;28;20099;-68
2023/10/17 09:29:27;;;;;;;2.42;1.00;;;;;;;9.76;100.00;101384.47;5052195;28;20063;-69
2023/10/17 09:31:55;;;;;;;3.13;1.20;;;;;;;9.96;100.00;101383.13;5050551;28;20049;-68
2023/10/17 09:34:26;;;;;;;3.25;1.20;;;;;;;9.96;100.00;101373.50;5046281;28;20557;-68
2023/10/17 09:37:03;;;;;;;3.40;1.02;;;;;;;10.09;100.00;101374.06;5046168;28;20128;-69
2023/10/17 09:39:39;;;;;;;5.80;1.70;;;;;;;10.06;100.00;101387.25;5051417;28;20057;-69
2023/10/17 09:42:06;;;;;;;4.05;1.38;;;;;;;9.81;100.00;101386.94;5044332;28;20048;-69
2023/10/17 09:44:33;;;;;;;6.43;1.50;;;;;;;9.78;100.00;101377.44;5048261;28;20487;-69
2023/10/17 09:47:03;;;;;;;5.05;1.30;;;;;;;10.04;100.00;101374.19;5037172;28;20057;-68
2023/10/17 09:49:37;;;;;;;3.97;1.17;;;;;;;10.05;100.00;101369.81;5050578;28;20495;-67
2023/10/17 09:52:09;;;;;;;3.33;1.20;;;;;;;9.92;100.00;101387.56;5046373;28;20132;-69
2023/10/17 09:54:40;;;;;;;4.57;1.27;;;;;;;9.96;100.00;101380.50;5051710;28;20479;-69
2023/10/17 09:57:16;;;;;;;3.25;1.20;;;;;;;10.21;100.00;101386.81;5049909;28;20505;-68
2023/10/17 10:00:00;;;;;;;5.18;1.30;;;;;;;10.35;100.00;101376.03;5051497;28;20060;-68
2023/10/17 10:02:27;;;;;;;4.72;1.20;;;;;;;10.39;100.00;101363.72;5044849;28;20128;-68
2023/10/17 10:04:54;;;;;;;4.30;1.30;;;;;;;10.41;100.00;101359.31;5044798;28;20061;-68
2023/10/17 10:07:22;;;;;;;4.63;1.08;;;;;;;10.69;100.00;101375.13;5044115;28;20056;-68
2023/10/17 10:09:49;;;;;;;3.08;1.27;;;;;;;10.59;100.00;101365.81;5044167;28;20132;-68
2023/10/17 10:12:17;;;;;;;3.67;1.20;;;;;;;10.78;100.00;101372.25;5046698;28;20044;-68
2023/10/17 10:14:44;;;;;;;3.70;1.20;;;;;;;10.92;100.00;101368.38;5051071;28;20060;-68
2023/10/17 10:17:16;;;;;;;4.47;1.20;;;;;;;11.09;100.00;101373.97;5047267;28;20112;-68
2023/10/17 10:19:42;;;;;;;5.05;1.35;;;;;;;10.77;100.00;101380.16;5046340;28;20421;-68
2023/10/17 10:22:11;;;;;;;3.00;1.13;;;;;;;11.23;100.00;101375.34;5044621;28;20499;-68
2023/10/17 10:24:39;;;;;;;3.78;1.13;;;;;;;11.20;100.00;101368.41;5043620;28;20053;-68
2023/10/17 10:27:15;;;;;;;2.25;0.90;;;;;;;11.50;100.00;101366.63;5041045;28;20092;-68
2023/10/17 10:29:44;;;;;;;3.40;1.10;;;;;;;11.56;100.00;101374.31;5043644;28;20056;-68
2023/10/17 10:32:33;;;;;;;3.30;1.20;;;;;;;11.51;100.00;101372.72;5048164;28;20045;-68
2023/10/17 10:35:07;;;;;;;3.58;1.00;;;;;;;11.44;100.00;101379.94;5041223;28;20119;-68
2023/10/17 10:37:49;;;;;;;2.83;1.13;;;;;;;11.48;100.00;101368.44;5047650;28;20416;-68
2023/10/17 10:42:52;;;;;;;2.78;1.10;;;;;;;11.79;100.00;101356.94;5047135;28;20047;-68
2023/10/17 10:46:00;;;;;;;1.75;0.95;;;;;;;11.83;100.00;101355.97;5045243;28;20422;-68
2023/10/17 10:48:28;;;;;;;3.15;1.10;;;;;;;11.89;100.00;101347.88;5041397;28;20417;-68
2023/10/17 10:50:57;;;;;;;4.00;1.35;;;;;;;12.11;100.00;101360.28;5050355;28;20049;-68
2023/10/17 10:53:28;;;;;;;3.88;1.20;;;;;;;12.03;100.00;101357.09;5042070;28;20048;-68
2023/10/17 10:55:59;;;;;;;3.17;1.20;;;;;;;12.19;100.00;101358.28;5049808;28;20044;-68
2023/10/17 10:58:31;;;;;;;3.17;1.00;;;;;;;12.22;100.00;101357.34;5049000;28;20080;-68
2023/10/17 11:00:59;;;;;;;5.93;1.45;;;;;;;12.40;100.00;101354.06;5048766;28;20136;-68
2023/10/17 11:03:26;;;;;;;3.50;1.25;;;;;;;12.28;100.00;101357.09;5048644;28;20049;-68
2023/10/17 11:06:03;;;;;;;2.80;0.90;;;;;;;12.26;100.00;101354.53;5050853;28;20052;-68
2023/10/17 11:08:45;;;;;;;3.42;1.27;;;;;;;12.50;100.00;101342.31;5050207;28;20056;-68
2023/10/17 11:11:16;;;;;;;2.22;0.93;;;;;;;12.45;100.00;101327.63;5041278;28;20475;-68
2023/10/17 11:13:54;;;;;;;3.05;1.00;;;;;;;12.65;100.00;101335.63;5050507;28;20138;-68
2023/10/17 11:16:24;;;;;;;2.80;1.05;;;;;;;12.87;100.00;101330.44;5048816;28;20089;-68
2023/10/17 11:18:53;;;;;;;2.03;0.90;;;;;;;12.79;100.00;101332.50;5049288;28;20095;-68
2023/10/17 11:21:22;;;;;;;3.17;1.05;;;;;;;12.84;100.00;101332.34;5050073;28;20441;-68
2023/10/17 11:23:55;;;;;;;2.55;1.00;;;;;;;12.96;100.00;101341.50;5041874;28;20041;-68
2023/10/17 11:26:26;;;;;;;4.63;0.95;;;;;;;13.00;100.00;101328.22;5050604;28;20143;-68
2023/10/17 11:28:56;;;;;;;3.10;1.20;;;;;;;12.98;100.00;101324.78;5050160;28;20041;-68
2023/10/17 11:31:27;;;;;;;2.97;1.05;;;;;;;12.81;100.00;101320.16;5048117;28;20056;-68
2023/10/17 11:34:04;;;;;;;5.05;1.70;;;;;;;12.52;100.00;101324.72;5043818;28;20055;-68
2023/10/17 11:36:49;;;;;;;2.90;1.00;;;;;;;12.79;100.00;101313.25;5049754;28;20140;-68
2023/10/17 11:39:16;;;;;;;3.25;1.20;;;;;;;12.85;100.00;101321.75;5037726;28;20106;-68
2023/10/17 11:41:57;;;;;;;2.83;1.08;;;;;;;12.79;100.00;101321.13;5045052;28;20063;-68
2023/10/17 11:44:26;;;;;;;3.10;1.00;;;;;;;12.79;100.00;101314.09;5053191;28;20048;-68
2023/10/17 11:47:03;;;;;;;3.65;1.00;;;;;;;12.65;100.00;101313.75;5048744;28;20091;-68
2023/10/17 11:49:39;;;;;;;2.08;0.80;;;;;;;12.54;100.00;101316.78;5049360;28;20053;-68
2023/10/17 11:52:10;;;;;;;2.40;0.80;;;;;;;12.89;100.00;101301.47;5047320;28;20110;-68
2023/10/17 11:55:00;;;;;;;2.05;0.90;;;;;;;13.09;100.00;101314.69;5050160;28;20511;-68
2023/10/17 11:57:29;;;;;;;2.47;0.95;;;;;;;13.17;100.00;101316.16;5046859;28;20515;-68
2023/10/17 12:00:19;;;;;;;1.95;0.90;;;;;;;13.14;100.00;101298.75;5049719;28;20127;-68
2023/10/17 12:02:48;;;;;;;1.83;0.80;;;;;;;13.36;100.00;101306.66;5048076;28;20041;-68
2023/10/17 12:05:19;;;;;;;1.90;0.88;;;;;;;13.18;100.00;101300.34;5041697;28;20509;-68
2023/10/17 12:07:57;;;;;;;2.92;0.95;;;;;;;13.30;100.00;101309.53;5049585;28;20059;-68
2023/10/17 12:10:24;;;;;;;3.10;0.90;;;;;;;13.38;100.00;101296.09;5047018;28;20045;-68
2023/10/17 12:12:52;;;;;;;2.20;0.80;;;;;;;13.35;100.00;101296.22;5046154;28;20041;-68
2023/10/17 12:15:23;;;;;;;1.17;0.80;;;;;;;13.17;100.00;101284.63;5045879;28;20045;-68
2023/10/17 12:17:50;;;;;;;1.90;0.88;;;;;;;13.15;100.00;101289.94;5039325;28;20053;-68
2023/10/17 12:20:19;;;;;;;2.53;0.80;;;;;;;13.21;100.00;101271.31;5036517;28;20454;-68
2023/10/17 12:22:46;;;;;;;3.10;0.90;;;;;;;13.01;100.00;101281.75;5047463;28;20128;-68
2023/10/17 12:25:16;;;;;;;1.63;0.80;;;;;;;13.07;100.00;101287.63;5046711;28;20051;-68
2023/10/17 12:27:49;;;;;;;4.03;1.05;;;;;;;13.26;100.00;101279.88;5045004;28;20045;-68
2023/10/17 12:30:22;;;;;;;2.15;1.00;;;;;;;13.17;100.00;101276.72;5042652;28;20048;-68
2023/10/17 12:32:49;;;;;;;2.50;1.02;;;;;;;13.41;100.00;101257.38;5044465;28;20057;-68
2023/10/17 12:35:18;;;;;;;1.70;0.80;;;;;;;13.50;100.00;101265.81;5043962;28;20048;-68
2023/10/17 12:37:45;;;;;;;2.45;1.00;;;;;;;13.45;100.00;101260.72;5044147;28;20060;-68
2023/10/17 12:40:18;;;;;;;4.43;1.35;;;;;;;13.16;100.00;101256.63;5048952;28;20053;-68
2023/10/17 12:42:49;;;;;;;6.25;1.10;;;;;;;13.46;100.00;101254.56;5051099;28;20131;-68
2023/10/17 12:45:17;;;;;;;1.52;0.85;;;;;;;13.55;100.00;101243.66;5053834;28;20048;-68
2023/10/17 12:47:45;;;;;;;3.20;0.95;;;;;;;12.98;100.00;101239.78;5055607;28;20110;-68
2023/10/17 12:50:14;;;;;;;4.30;1.30;;;;;;;13.19;100.00;101243.34;5055833;28;20083;-68
2023/10/17 12:52:41;;;;;;;3.50;1.17;;;;;;;13.11;100.00;101233.16;5050987;28;20056;-68
2023/10/17 12:55:08;;;;;;;2.70;1.10;;;;;;;13.01;100.00;101226.53;5067994;28;20052;-68
2023/10/17 12:57:38;;;;;;;4.80;1.20;;;;;;;12.98;100.00;101227.53;5055644;28;20491;-68
2023/10/17 13:00:09;;;;;;;6.95;1.40;;;;;;;12.89;100.00;101226.13;5054663;28;20067;-68
2023/10/17 13:02:40;;;;;;;4.72;1.30;;;;;;;12.88;100.00;101226.19;5059904;28;20048;-68
2023/10/17 13:05:11;;;;;;;3.20;1.20;;;;;;;12.76;100.00;101227.50;5057776;28;20428;-68
2023/10/17 13:07:40;;;;;;;2.45;1.05;;;;;;;12.80;100.00;101236.13;5055847;28;20041;-68
2023/10/17 13:10:08;;;;;;;3.58;1.00;;;;;;;12.41;100.00;101206.09;5056668;28;20501;-68
2023/10/17 13:12:41;;;;;;;2.90;1.05;;;;;;;12.56;100.00;101236.16;5055912;28;20080;-68
2023/10/17 13:15:09;;;;;;;2.72;1.48;;;;;;;12.66;100.00;101234.91;5055795;28;20045;-68
2023/10/17 13:17:36;;;;;;;2.92;1.10;;;;;;;12.43;100.00;101229.63;5062726;28;20122;-68
2023/10/17 13:20:07;;;;;;;3.22;1.13;;;;;;;12.62;100.00;101224.56;5049750;28;20049;-68
2023/10/17 13:22:49;;;;;;;3.60;1.23;;;;;;;12.49;100.00;101221.53;5055548;28;20045;-68
2023/10/17 13:25:19;;;;;;;2.67;1.15;;;;;;;12.64;100.00;101225.34;5055623;28;20106;-70
2023/10/17 13:27:45;;;;;;;4.78;1.00;;;;;;;12.32;100.00;101209.03;5055160;28;20526;-67
2023/10/17 13:30:13;;;;;;;4.07;1.27;;;;;;;12.43;100.00;101213.88;5053889;28;20478;-68
2023/10/17 13:32:39;;;;;;;3.60;1.15;;;;;;;12.60;100.00;101202.75;5054846;28;20056;-67
2023/10/17 13:35:07;;;;;;;7.63;2.03;;;;;;;12.40;100.00;101203.50;5055644;28;20078;-68
2023/10/17 13:37:34;;;;;;;7.32;2.08;;;;;;;12.35;100.00;101207.16;5054489;28;20049;-68
2023/10/17 13:40:01;;;;;;;5.30;1.77;;;;;;;12.33;100.00;101187.13;5054599;28;20248;-68
2023/10/17 13:42:28;;;;;;;5.85;1.60;;;;;;;12.32;100.00;101201.16;5054269;28;20053;-68
2023/10/17 13:44:55;;;;;;;3.90;1.38;;;;;;;12.23;100.00;101183.97;5055340;28;20487;-67
2023/10/17 13:47:21;;;;;;;4.53;1.10;;;;;;;12.35;100.00;101199.28;5055443;28;20057;-68